createdAt,value
2023-04-08T00:01:29.413Z,6.70
2023-04-08T00:04:14.753Z,7.00
2023-04-08T00:06:59.846Z,7.30
2023-04-08T00:09:45.420Z,7.07
2023-04-08T00:12:30.991Z,6.35
2023-04-08T00:15:16.365Z,7.28
2023-04-08T00:18:02.308Z,6.88
2023-04-08T00:20:47.658Z,6.25
2023-04-08T00:23:32.992Z,7.32
2023-04-08T00:26:18.151Z,6.80
2023-04-08T00:29:03.679Z,6.97
2023-04-08T00:31:49.017Z,6.68
2023-04-08T00:34:34.409Z,7.25
2023-04-08T00:37:19.664Z,7.50
2023-04-08T00:40:05.972Z,7.55
2023-04-08T00:42:51.315Z,7.40
2023-04-08T00:45:36.417Z,6.45
2023-04-08T00:48:21.850Z,7.72
2023-04-08T00:51:08.283Z,6.93
2023-04-08T00:53:53.329Z,7.03
2023-04-08T00:56:38.876Z,8.05
2023-04-08T00:59:23.950Z,8.07
2023-04-08T01:02:31.179Z,7.55
2023-04-08T01:05:28.955Z,7.00
2023-04-08T01:08:16.086Z,6.53
2023-04-08T01:11:03.756Z,6.97
2023-04-08T01:13:50.988Z,6.53
2023-04-08T01:16:41.361Z,5.78
2023-04-08T01:19:34.560Z,6.40
2023-04-08T01:22:33.443Z,5.28
2023-04-08T01:25:32.209Z,5.75
2023-04-08T01:28:20.006Z,6.38
2023-04-08T01:31:06.321Z,6.00
2023-04-08T01:33:52.064Z,6.20
2023-04-08T01:36:38.905Z,4.93
2023-04-08T01:39:25.477Z,5.93
2023-04-08T01:42:12.229Z,6.13
2023-04-08T01:44:59.180Z,6.00
2023-04-08T01:47:49.080Z,5.95
2023-04-08T01:50:35.317Z,5.68
2023-04-08T01:53:20.639Z,5.80
2023-04-08T01:56:09.352Z,6.63
2023-04-08T01:58:58.904Z,5.78
2023-04-08T02:01:45.535Z,6.38
2023-04-08T02:04:31.498Z,6.43
2023-04-08T02:07:17.904Z,5.57
2023-04-08T02:10:03.432Z,5.88
2023-04-08T02:12:48.977Z,6.53
2023-04-08T02:15:36.480Z,5.78
2023-04-08T02:18:27.300Z,6.15
2023-04-08T02:21:15.825Z,5.80
2023-04-08T02:24:06.307Z,6.40
2023-04-08T02:26:52.358Z,5.82
2023-04-08T02:29:41.290Z,6.50
2023-04-08T02:32:26.938Z,5.80
2023-04-08T02:35:13.225Z,5.55
2023-04-08T02:37:58.660Z,5.72
2023-04-08T02:40:44.057Z,6.18
2023-04-08T02:43:32.568Z,6.03
2023-04-08T02:46:17.794Z,5.93
2023-04-08T02:49:03.142Z,5.80
2023-04-08T02:51:48.904Z,6.47
2023-04-08T02:54:34.475Z,5.45
2023-04-08T02:57:19.848Z,4.78
2023-04-08T03:00:05.956Z,5.82
2023-04-08T03:02:51.736Z,5.43
2023-04-08T03:05:37.557Z,5.60
2023-04-08T03:08:23.033Z,5.72
2023-04-08T03:11:08.222Z,5.97
2023-04-08T03:13:53.777Z,5.53
2023-04-08T03:16:39.017Z,6.15
2023-04-08T03:19:24.462Z,5.97
2023-04-08T03:22:12.650Z,5.47
2023-04-08T03:24:57.616Z,5.85
2023-04-08T03:27:43.232Z,5.28
2023-04-08T03:30:28.498Z,5.07
2023-04-08T03:33:13.834Z,5.38
2023-04-08T03:35:59.238Z,5.90
2023-04-08T03:38:44.749Z,5.25
2023-04-08T03:41:30.704Z,5.25
2023-04-08T03:44:15.622Z,4.55
2023-04-08T03:47:01.043Z,6.10
2023-04-08T03:49:46.217Z,5.68
2023-04-08T03:52:31.689Z,5.53
2023-04-08T03:55:16.966Z,4.57
2023-04-08T03:58:02.364Z,4.90
2023-04-08T04:00:47.810Z,5.35
2023-04-08T04:03:33.282Z,5.35
2023-04-08T04:06:18.374Z,4.80
2023-04-08T04:09:03.642Z,4.97
2023-04-08T04:11:49.069Z,5.55
2023-04-08T04:14:34.365Z,4.97
2023-04-08T04:17:19.635Z,5.60
2023-04-08T04:20:06.555Z,4.95
2023-04-08T04:22:52.206Z,4.78
2023-04-08T04:25:39.443Z,5.18
2023-04-08T04:28:24.906Z,4.93
2023-04-08T04:31:19.599Z,6.05
2023-04-08T04:34:05.814Z,5.45
2023-04-08T04:36:51.397Z,6.22
2023-04-08T04:39:36.534Z,5.97
2023-04-08T04:42:21.732Z,5.65
2023-04-08T04:45:07.820Z,5.75
2023-04-08T04:47:52.863Z,5.32
2023-04-08T04:50:38.202Z,6.13
2023-04-08T04:53:23.874Z,4.78
2023-04-08T04:56:08.825Z,4.95
2023-04-08T04:58:54.310Z,5.82
2023-04-08T05:01:41.198Z,5.35
2023-04-08T05:04:27.222Z,5.00
2023-04-08T05:07:12.364Z,5.05
2023-04-08T05:09:57.623Z,5.80
2023-04-08T05:12:42.934Z,4.75
2023-04-08T05:15:28.190Z,4.72
2023-04-08T05:18:13.943Z,4.95
2023-04-08T05:20:59.088Z,5.80
2023-04-08T05:23:44.311Z,5.05
2023-04-08T05:26:29.612Z,5.68
2023-04-08T05:29:14.853Z,17.23
2023-04-08T05:32:00.195Z,12.07
2023-04-08T05:34:45.641Z,12.45
2023-04-08T05:37:30.935Z,16.08
2023-04-08T05:40:16.687Z,12.32
2023-04-08T05:43:01.853Z,10.38
2023-04-08T05:45:47.197Z,8.25
2023-04-08T05:48:32.691Z,6.85
2023-04-08T05:51:18.024Z,7.63
2023-04-08T05:54:03.390Z,7.57
2023-04-08T05:56:48.994Z,8.73
2023-04-08T05:59:34.268Z,8.27
2023-04-08T06:02:19.521Z,11.93
2023-04-08T06:05:05.875Z,10.02
2023-04-08T06:07:51.655Z,9.27
2023-04-08T06:10:37.312Z,9.52
2023-04-08T06:13:22.611Z,8.93
2023-04-08T06:16:15.402Z,9.43
2023-04-08T06:19:01.274Z,9.38
2023-04-08T06:21:47.383Z,8.05
2023-04-08T06:24:33.146Z,8.80
2023-04-08T06:27:18.785Z,9.07
2023-04-08T06:30:04.458Z,8.05
2023-04-08T06:32:49.850Z,8.40
2023-04-08T06:35:35.103Z,7.60
2023-04-08T06:38:20.398Z,6.60
2023-04-08T06:41:08.904Z,6.38
2023-04-08T06:46:39.434Z,6.45
2023-04-08T06:49:24.630Z,12.90
2023-04-08T06:52:09.794Z,24.88
2023-04-08T06:54:55.052Z,24.27
2023-04-08T06:57:40.422Z,15.82
2023-04-08T07:00:25.748Z,14.90
2023-04-08T07:03:11.994Z,12.55
2023-04-08T07:05:57.137Z,14.55
2023-04-08T07:08:42.711Z,16.98
2023-04-08T07:11:28.044Z,14.02
2023-04-08T07:14:13.775Z,15.20
2023-04-08T07:16:58.786Z,10.98
2023-04-08T07:19:44.208Z,10.07
2023-04-08T07:22:29.453Z,10.35
2023-04-08T07:25:14.904Z,10.50
2023-04-08T07:27:59.809Z,10.18
2023-04-08T07:30:45.140Z,13.20
2023-04-08T07:33:30.602Z,12.32
2023-04-08T07:36:18.326Z,10.32
2023-04-08T07:39:03.995Z,8.52
2023-04-08T07:41:49.234Z,8.93
2023-04-08T07:44:34.591Z,8.95
2023-04-08T07:47:19.867Z,9.45
2023-04-08T07:50:06.061Z,9.00
2023-04-08T07:52:53.335Z,9.23
2023-04-08T07:55:40.425Z,9.23
2023-04-08T07:58:25.716Z,8.77
2023-04-08T08:01:22.424Z,8.30
2023-04-08T08:04:08.024Z,7.95
2023-04-08T08:06:53.270Z,7.43
2023-04-08T08:09:38.564Z,6.65
2023-04-08T08:12:24.055Z,5.95
2023-04-08T08:15:09.927Z,6.85
2023-04-08T08:17:55.428Z,8.13
2023-04-08T08:20:40.750Z,7.75
2023-04-08T08:23:25.938Z,6.43
2023-04-08T08:26:11.360Z,6.10
2023-04-08T08:28:56.606Z,7.85
2023-04-08T08:31:42.017Z,7.00
2023-04-08T08:34:27.206Z,5.43
2023-04-08T08:37:12.478Z,5.82
2023-04-08T08:39:57.758Z,5.45
2023-04-08T08:42:52.832Z,5.22
2023-04-08T08:45:42.157Z,5.80
2023-04-08T08:48:27.546Z,5.13
2023-04-08T08:51:13.600Z,5.28
2023-04-08T08:54:02.723Z,4.15
2023-04-08T08:56:49.107Z,5.70
2023-04-08T08:59:34.955Z,6.75
2023-04-08T09:02:29.169Z,5.88
2023-04-08T09:05:14.974Z,4.38
2023-04-08T09:08:00.534Z,4.72
2023-04-08T09:10:45.710Z,5.10
2023-04-08T09:13:37.143Z,5.00
2023-04-08T09:16:23.511Z,4.60
2023-04-08T09:19:11.265Z,5.38
2023-04-08T09:22:11.414Z,5.68
2023-04-08T09:24:57.459Z,5.28
2023-04-08T09:27:42.515Z,16.25
2023-04-08T09:30:28.306Z,8.05
2023-04-08T09:33:13.942Z,6.10
2023-04-08T09:35:59.345Z,19.48
2023-04-08T09:38:44.939Z,6.40
2023-04-08T09:41:34.400Z,5.30
2023-04-08T09:44:21.726Z,4.55
2023-04-08T09:47:20.716Z,5.63
2023-04-08T09:50:09.168Z,4.78
2023-04-08T09:53:01.353Z,5.13
2023-04-08T09:55:52.031Z,6.65
2023-04-08T09:58:58.963Z,6.78
2023-04-08T10:01:50.559Z,7.90
2023-04-08T10:04:41.777Z,5.63
2023-04-08T10:07:27.640Z,6.95
2023-04-08T10:10:12.643Z,6.40
2023-04-08T10:12:58.452Z,6.88
2023-04-08T10:15:44.343Z,5.68
2023-04-08T10:18:33.362Z,4.93
2023-04-08T10:21:31.746Z,5.18
2023-04-08T10:24:18.713Z,5.40
2023-04-08T10:27:05.792Z,5.47
2023-04-08T10:29:52.038Z,4.85
2023-04-08T10:32:41.789Z,5.10
2023-04-08T10:35:36.532Z,5.15
2023-04-08T10:38:22.471Z,6.90
2023-04-08T10:41:08.436Z,6.55
2023-04-08T10:43:53.916Z,6.40
2023-04-08T10:46:39.173Z,6.90
2023-04-08T10:49:33.335Z,7.45
2023-04-08T10:52:20.093Z,6.38
2023-04-08T10:55:06.015Z,7.40
2023-04-08T10:57:51.661Z,7.38
2023-04-08T11:00:38.710Z,7.05
2023-04-08T11:03:27.672Z,7.78
2023-04-08T11:06:13.003Z,6.90
2023-04-08T11:09:00.244Z,8.63
2023-04-08T11:11:46.672Z,6.93
2023-04-08T11:14:33.237Z,8.48
2023-04-08T11:17:19.015Z,7.55
2023-04-08T11:20:06.367Z,8.93
2023-04-08T11:22:52.141Z,8.32
2023-04-08T11:25:37.430Z,8.75
2023-04-08T11:28:23.170Z,8.10
2023-04-08T11:31:09.216Z,8.00
2023-04-08T11:33:56.251Z,8.98
2023-04-08T11:36:41.886Z,9.13
2023-04-08T11:39:27.253Z,9.80
2023-04-08T11:42:27.566Z,11.80
2023-04-08T11:45:16.243Z,11.05
2023-04-08T11:48:08.315Z,11.23
2023-04-08T11:51:05.179Z,11.13
2023-04-08T11:53:53.961Z,17.77
2023-04-08T11:56:47.354Z,16.20
2023-04-08T11:59:32.223Z,14.30
2023-04-08T12:02:18.073Z,10.30
2023-04-08T12:05:03.653Z,10.75
2023-04-08T12:07:49.019Z,11.02
2023-04-08T12:10:34.317Z,12.43
2023-04-08T12:13:19.588Z,9.57
2023-04-08T12:16:05.100Z,12.80
2023-04-08T12:18:50.433Z,12.93
2023-04-08T12:21:36.151Z,11.70
2023-04-08T12:24:21.479Z,13.80
2023-04-08T12:27:06.912Z,12.30
2023-04-08T12:29:53.435Z,11.70
2023-04-08T12:32:38.658Z,12.75
2023-04-08T12:35:23.988Z,11.45
2023-04-08T12:38:09.300Z,12.27
2023-04-08T12:40:55.669Z,10.93
2023-04-08T12:43:40.861Z,12.65
2023-04-08T12:46:26.182Z,16.58
2023-04-08T12:49:12.865Z,11.13
2023-04-08T12:51:58.335Z,11.88
2023-04-08T12:54:43.618Z,10.77
2023-04-08T12:57:29.085Z,11.18
2023-04-08T13:00:14.484Z,10.35
2023-04-08T13:02:59.737Z,10.27
2023-04-08T13:05:44.923Z,10.90
2023-04-08T13:08:30.286Z,9.60
2023-04-08T13:11:15.653Z,9.93
2023-04-08T13:14:01.054Z,10.77
2023-04-08T13:16:46.564Z,11.68
2023-04-08T13:19:32.051Z,12.40
2023-04-08T13:22:17.426Z,14.55
2023-04-08T13:25:03.260Z,14.15
2023-04-08T13:27:48.944Z,13.10
2023-04-08T13:30:35.330Z,12.75
2023-04-08T13:33:20.394Z,17.30
2023-04-08T13:36:06.416Z,13.48
2023-04-08T13:38:52.353Z,15.38
2023-04-08T13:41:37.981Z,14.65
2023-04-08T13:44:25.378Z,17.77
2023-04-08T13:47:10.834Z,13.95
2023-04-08T13:49:56.112Z,15.70
2023-04-08T13:52:41.542Z,13.23
2023-04-08T13:55:26.765Z,11.95
2023-04-08T13:58:22.881Z,13.98
2023-04-08T14:01:09.621Z,17.27
2023-04-08T14:03:55.195Z,12.38
2023-04-08T14:06:41.116Z,8.98
2023-04-08T14:09:26.501Z,10.57
2023-04-08T14:12:12.473Z,10.52
2023-04-08T14:14:58.050Z,9.95
2023-04-08T14:17:43.488Z,10.60
2023-04-08T14:20:28.734Z,12.75
2023-04-08T14:23:14.047Z,10.73
2023-04-08T14:26:01.610Z,12.93
2023-04-08T14:28:48.069Z,12.88
2023-04-08T14:31:34.174Z,16.20
2023-04-08T14:34:19.651Z,12.75
2023-04-08T14:37:05.956Z,10.55
2023-04-08T14:39:51.750Z,11.73
2023-04-08T14:42:37.295Z,11.27
2023-04-08T14:45:22.989Z,10.88
2023-04-08T14:48:08.888Z,12.05
2023-04-08T14:50:54.470Z,14.95
2023-04-08T14:53:40.633Z,26.23
2023-04-08T14:56:27.008Z,15.32
2023-04-08T14:59:13.121Z,13.10
2023-04-08T15:01:59.238Z,12.68
2023-04-08T15:04:45.002Z,11.95
2023-04-08T15:07:30.384Z,11.82
2023-04-08T15:10:16.083Z,12.43
2023-04-08T15:13:02.040Z,11.60
2023-04-08T15:15:47.700Z,12.15
2023-04-08T15:18:33.280Z,11.50
2023-04-08T15:21:19.003Z,15.70
2023-04-08T15:24:04.970Z,15.98
2023-04-08T15:26:51.010Z,14.10
2023-04-08T15:29:37.573Z,13.40
2023-04-08T15:32:23.233Z,12.45
2023-04-08T15:35:08.970Z,25.08
2023-04-08T15:37:54.704Z,14.52
2023-04-08T15:40:39.667Z,11.82
2023-04-08T15:43:25.075Z,13.55
2023-04-08T15:46:10.903Z,12.32
2023-04-08T15:48:56.388Z,15.25
2023-04-08T15:51:44.565Z,17.42
2023-04-08T15:54:31.214Z,15.00
2023-04-08T15:57:16.907Z,13.98
2023-04-08T16:00:02.887Z,23.65
2023-04-08T16:02:48.517Z,18.23
2023-04-08T16:05:36.121Z,19.63
2023-04-08T16:08:21.847Z,19.92
2023-04-08T16:11:08.719Z,23.92
2023-04-08T16:13:53.886Z,30.63
2023-04-08T16:16:39.353Z,15.57
2023-04-08T16:19:24.637Z,23.20
2023-04-08T16:22:10.155Z,16.13
2023-04-08T16:24:55.522Z,21.02
2023-04-08T16:27:41.191Z,17.15
2023-04-08T16:30:26.636Z,16.83
2023-04-08T16:33:11.873Z,19.80
2023-04-08T16:35:57.668Z,16.73
2023-04-08T16:38:42.935Z,12.55
2023-04-08T16:41:28.228Z,13.95
2023-04-08T16:44:14.740Z,13.68
2023-04-08T16:47:00.619Z,15.40
2023-04-08T16:49:45.923Z,18.63
2023-04-08T16:52:31.195Z,25.73
2023-04-08T16:55:17.350Z,29.65
2023-04-08T16:58:03.724Z,30.02
2023-04-08T17:00:49.057Z,23.70
2023-04-08T17:03:34.822Z,15.20
2023-04-08T17:06:20.261Z,13.55
2023-04-08T17:09:05.864Z,14.07
2023-04-08T17:11:51.321Z,14.02
2023-04-08T17:14:36.631Z,11.57
2023-04-08T17:17:21.793Z,12.38
2023-04-08T17:20:07.581Z,12.88
2023-04-08T17:22:53.040Z,12.05
2023-04-08T17:25:38.293Z,11.45
2023-04-08T17:28:23.801Z,11.40
2023-04-08T17:31:10.648Z,11.45
2023-04-08T17:33:56.092Z,23.35
2023-04-08T17:36:42.187Z,31.73
2023-04-08T17:39:27.159Z,13.93
2023-04-08T17:42:13.276Z,14.40
2023-04-08T17:44:59.740Z,14.75
2023-04-08T17:47:44.788Z,17.27
2023-04-08T17:50:30.384Z,19.00
2023-04-08T17:53:16.386Z,44.13
2023-04-08T17:56:02.031Z,38.72
2023-04-08T17:58:48.261Z,25.38
2023-04-08T18:01:33.418Z,34.88
2023-04-08T18:04:18.957Z,25.98
2023-04-08T18:07:05.364Z,28.83
2023-04-08T18:09:50.853Z,25.83
2023-04-08T18:12:36.227Z,23.98
2023-04-08T18:15:21.378Z,21.20
2023-04-08T18:18:06.859Z,22.55
2023-04-08T18:20:51.977Z,19.33
2023-04-08T18:23:37.737Z,21.23
2023-04-08T18:26:22.902Z,19.98
2023-04-08T18:29:08.213Z,21.50
2023-04-08T18:31:53.433Z,19.98
2023-04-08T18:34:39.180Z,19.08
2023-04-08T18:37:24.224Z,19.63
2023-04-08T18:40:09.982Z,20.08
2023-04-08T18:42:55.029Z,19.83
2023-04-08T18:45:41.306Z,19.00
2023-04-08T18:48:26.927Z,19.20
2023-04-08T18:51:12.625Z,18.55
2023-04-08T18:53:58.050Z,19.67
2023-04-08T18:56:43.329Z,18.33
2023-04-08T18:59:28.648Z,16.42
2023-04-08T19:02:14.420Z,53.08
2023-04-08T19:04:59.887Z,52.20
2023-04-08T19:07:44.934Z,24.77
2023-04-08T19:10:31.410Z,19.00
2023-04-08T19:13:17.001Z,19.27
2023-04-08T19:16:02.261Z,19.08
2023-04-08T19:18:47.353Z,19.40
2023-04-08T19:21:33.167Z,20.17
2023-04-08T19:24:20.845Z,22.13
2023-04-08T19:27:06.270Z,20.00
2023-04-08T19:29:51.325Z,21.48
2023-04-08T19:32:36.597Z,17.75
2023-04-08T19:35:21.964Z,17.05
2023-04-08T19:38:07.817Z,17.77
2023-04-08T19:40:52.847Z,18.25
2023-04-08T19:43:37.990Z,33.90
2023-04-08T19:46:23.178Z,28.98
2023-04-08T19:49:08.401Z,27.40
2023-04-08T19:51:53.489Z,24.98
2023-04-08T19:54:41.167Z,26.98
2023-04-08T19:57:26.695Z,23.90
2023-04-08T20:00:14.147Z,24.92
2023-04-08T20:02:59.663Z,23.65
2023-04-08T20:05:46.861Z,26.88
2023-04-08T20:08:32.004Z,18.65
2023-04-08T20:11:17.275Z,14.95
2023-04-08T20:14:04.027Z,15.30
2023-04-08T20:16:49.348Z,16.30
2023-04-08T20:19:34.768Z,15.70
2023-04-08T20:22:20.928Z,16.52
2023-04-08T20:25:06.664Z,16.95
2023-04-08T20:27:52.239Z,14.95
2023-04-08T20:30:38.588Z,14.88
2023-04-08T20:33:23.874Z,17.50
2023-04-08T20:36:10.601Z,15.05
2023-04-08T20:38:56.368Z,14.05
2023-04-08T20:41:47.597Z,13.85
2023-04-08T20:44:32.964Z,14.05
2023-04-08T20:47:18.344Z,16.27
2023-04-08T20:50:03.735Z,14.35
2023-04-08T20:52:48.679Z,16.17
2023-04-08T20:55:33.983Z,16.08
2023-04-08T20:58:19.210Z,17.23
2023-04-08T21:01:04.604Z,16.63
2023-04-08T21:03:50.427Z,13.95
2023-04-08T21:06:37.665Z,14.82
2023-04-08T21:09:23.488Z,13.48
2023-04-08T21:12:08.570Z,16.58
2023-04-08T21:14:54.043Z,13.18
2023-04-08T21:17:39.345Z,12.60
2023-04-08T21:20:24.788Z,15.30
2023-04-08T21:23:10.379Z,14.50
2023-04-08T21:25:55.441Z,13.30
2023-04-08T21:28:40.836Z,14.57
2023-04-08T21:31:26.858Z,13.75
2023-04-08T21:34:13.365Z,13.73
2023-04-08T21:36:58.447Z,13.68
2023-04-08T21:39:43.566Z,12.30
2023-04-08T21:42:28.935Z,12.27
2023-04-08T21:45:15.498Z,14.25
2023-04-08T21:48:00.672Z,14.05
2023-04-08T21:50:46.167Z,14.45
2023-04-08T21:53:31.383Z,14.23
2023-04-08T21:56:17.589Z,14.50
2023-04-08T21:59:02.755Z,12.90
2023-04-08T22:01:48.653Z,13.00
2023-04-08T22:04:34.705Z,14.82
2023-04-08T22:07:19.837Z,13.15
2023-04-08T22:10:06.023Z,13.23
2023-04-08T22:12:51.279Z,13.63
2023-04-08T22:15:37.064Z,13.52
2023-04-08T22:18:22.155Z,13.75
2023-04-08T22:21:07.636Z,13.18
2023-04-08T22:23:52.751Z,13.52
2023-04-08T22:26:38.050Z,14.23
2023-04-08T22:29:23.418Z,14.75
2023-04-08T22:32:08.686Z,13.65
2023-04-08T22:34:54.078Z,15.07
2023-04-08T22:37:39.331Z,14.88
2023-04-08T22:40:24.577Z,14.15
2023-04-08T22:43:10.116Z,16.20
2023-04-08T22:45:55.721Z,16.08
2023-04-08T22:48:41.876Z,15.43
2023-04-08T22:51:27.155Z,12.40
2023-04-08T22:54:12.476Z,12.15
2023-04-08T22:56:57.890Z,12.70
2023-04-08T22:59:42.905Z,13.27
2023-04-08T23:02:28.257Z,14.02
2023-04-08T23:05:13.503Z,13.45
2023-04-08T23:07:58.833Z,13.73
2023-04-08T23:10:44.237Z,15.20
2023-04-08T23:13:29.579Z,16.60
2023-04-08T23:16:14.869Z,14.82
2023-04-08T23:19:00.119Z,14.90
2023-04-08T23:21:45.692Z,14.45
2023-04-08T23:24:33.122Z,14.27
2023-04-08T23:27:18.101Z,14.02
2023-04-08T23:30:05.781Z,15.32
2023-04-08T23:32:51.408Z,18.67
2023-04-08T23:35:39.371Z,18.45
2023-04-08T23:38:24.729Z,15.80
2023-04-08T23:41:10.407Z,14.18
2023-04-08T23:43:55.795Z,14.50
2023-04-08T23:46:41.286Z,14.15
2023-04-08T23:49:26.472Z,14.02
2023-04-08T23:52:11.845Z,13.55
2023-04-08T23:54:57.056Z,15.57
2023-04-08T23:57:43.800Z,14.20
